createdAt,value
2022-08-28T00:00:20.662Z,101136.31
2022-08-28T00:02:48.083Z,101138.31
2022-08-28T00:05:17.102Z,101139.56
2022-08-28T00:07:47.639Z,101141.59
2022-08-28T00:10:17.484Z,101143.63
2022-08-28T00:12:47.005Z,101139.97
2022-08-28T00:15:17.435Z,101143.22
2022-08-28T00:17:44.822Z,101143.63
2022-08-28T00:20:12.915Z,101146.03
2022-08-28T00:22:40.520Z,101148.06
2022-08-28T00:25:09.489Z,101150.09
2022-08-28T00:27:55.048Z,101150.50
2022-08-28T00:30:26.913Z,101153.75
2022-08-28T00:32:55.680Z,101150.13
2022-08-28T00:35:23.817Z,101150.13
2022-08-28T00:37:51.202Z,101146.06
2022-08-28T00:40:19.972Z,101141.59
2022-08-28T00:42:55.706Z,101142.00
2022-08-28T00:45:24.037Z,101146.47
2022-08-28T00:47:52.856Z,101150.13
2022-08-28T00:50:23.111Z,101147.69
2022-08-28T00:52:53.455Z,101144.44
2022-08-28T00:55:23.041Z,101136.78
2022-08-28T00:57:56.519Z,101145.69
2022-08-28T01:00:33.800Z,101155.41
2022-08-28T01:03:00.558Z,101145.69
2022-08-28T01:05:28.903Z,101149.38
2022-08-28T01:07:58.753Z,101155.03
2022-08-28T01:10:28.116Z,101151.41
2022-08-28T01:12:56.911Z,101155.47
2022-08-28T01:15:28.348Z,101161.56
2022-08-28T01:18:04.647Z,101157.53
2022-08-28T01:20:35.799Z,101155.94
2022-08-28T01:23:07.055Z,101155.13
2022-08-28T01:25:35.795Z,101158.78
2022-08-28T01:28:05.236Z,101153.53
2022-08-28T01:30:32.494Z,101150.28
2022-08-28T01:32:59.209Z,101162.84
2022-08-28T01:35:31.136Z,101154.34
2022-08-28T01:37:57.801Z,101160.41
2022-08-28T01:40:39.566Z,101168.50
2022-08-28T01:43:14.883Z,101168.91
2022-08-28T01:45:45.040Z,101178.59
2022-08-28T01:48:14.296Z,101180.25
2022-08-28T01:50:42.205Z,101185.91
2022-08-28T01:53:12.387Z,101180.22
2022-08-28T01:55:39.340Z,101187.91
2022-08-28T01:58:06.908Z,101193.16
2022-08-28T02:00:33.804Z,101188.72
2022-08-28T02:03:00.880Z,101202.06
2022-08-28T02:05:30.486Z,101197.19
2022-08-28T02:07:57.756Z,101191.94
2022-08-28T02:10:25.323Z,101193.16
2022-08-28T02:12:53.357Z,101195.97
2022-08-28T02:15:20.034Z,101195.16
2022-08-28T02:17:50.298Z,101188.72
2022-08-28T02:20:17.325Z,101193.56
2022-08-28T02:22:44.526Z,101199.63
2022-08-28T02:25:12.060Z,101193.97
2022-08-28T02:27:39.060Z,101193.56
2022-08-28T02:30:08.032Z,101198.00
2022-08-28T02:32:35.164Z,101202.84
2022-08-28T02:35:02.630Z,101203.25
2022-08-28T02:37:29.143Z,101195.97
2022-08-28T02:39:58.076Z,101203.25
2022-08-28T02:42:26.277Z,101208.50
2022-08-28T02:44:52.883Z,101198.00
2022-08-28T02:47:19.583Z,101207.66
2022-08-28T02:49:46.096Z,101211.31
2022-08-28T02:52:12.809Z,101202.00
2022-08-28T02:54:40.060Z,101209.69
2022-08-28T02:57:08.323Z,101209.25
2022-08-28T02:59:38.579Z,101220.13
2022-08-28T03:02:07.263Z,101216.88
2022-08-28T03:04:35.550Z,101222.13
2022-08-28T03:07:02.548Z,101221.72
2022-08-28T03:09:29.217Z,101224.56
2022-08-28T03:11:55.759Z,101226.97
2022-08-28T03:14:22.995Z,101234.25
2022-08-28T03:16:50.206Z,101226.13
2022-08-28T03:19:16.749Z,101226.16
2022-08-28T03:21:43.255Z,101223.69
2022-08-28T03:24:10.206Z,101224.50
2022-08-28T03:26:41.729Z,101224.50
2022-08-28T03:29:08.260Z,101228.94
2022-08-28T03:31:36.134Z,101216.00
2022-08-28T03:34:02.638Z,101237.81
2022-08-28T03:36:29.559Z,101221.66
2022-08-28T03:38:59.263Z,101226.91
2022-08-28T03:41:29.094Z,101218.78
2022-08-28T03:43:57.682Z,101220.00
2022-08-28T03:46:24.754Z,101220.41
2022-08-28T03:48:52.327Z,101224.44
2022-08-28T03:51:29.393Z,101221.56
2022-08-28T03:53:57.991Z,101226.81
2022-08-28T03:56:25.968Z,101217.91
2022-08-28T03:58:57.477Z,101221.91
2022-08-28T04:01:24.763Z,101231.97
2022-08-28T04:03:51.522Z,101238.44
2022-08-28T04:06:19.489Z,101235.56
2022-08-28T04:08:46.457Z,101232.69
2022-08-28T04:11:13.118Z,101229.88
2022-08-28T04:13:41.567Z,101226.22
2022-08-28T04:16:10.951Z,101230.22
2022-08-28T04:18:40.577Z,101231.00
2022-08-28T04:21:11.728Z,101230.16
2022-08-28T04:23:39.708Z,101230.16
2022-08-28T04:26:07.902Z,101238.59
2022-08-28T04:28:35.374Z,101228.88
2022-08-28T04:31:03.088Z,101231.69
2022-08-28T04:33:30.491Z,101233.28
2022-08-28T04:35:57.438Z,101234.47
2022-08-28T04:38:24.267Z,101236.50
2022-08-28T04:40:50.809Z,101235.69
2022-08-28T04:43:17.403Z,101241.69
2022-08-28T04:45:45.670Z,101242.09
2022-08-28T04:48:13.714Z,101247.75
2022-08-28T04:50:48.906Z,101246.13
2022-08-28T04:53:18.816Z,101243.31
2022-08-28T04:55:54.072Z,101245.31
2022-08-28T04:58:23.993Z,101242.50
2022-08-28T05:00:52.924Z,101242.50
2022-08-28T05:03:19.463Z,101243.72
2022-08-28T05:05:55.091Z,101240.91
2022-08-28T05:08:24.678Z,101241.34
2022-08-28T05:10:51.185Z,101246.56
2022-08-28T05:13:18.587Z,101253.84
2022-08-28T05:15:48.240Z,101250.22
2022-08-28T05:18:16.746Z,101244.97
2022-08-28T05:20:45.912Z,101255.09
2022-08-28T05:23:13.554Z,101260.31
2022-08-28T05:25:43.076Z,101265.56
2022-08-28T05:28:12.277Z,101256.28
2022-08-28T05:30:41.343Z,101259.13
2022-08-28T05:33:09.897Z,101266.00
2022-08-28T05:35:38.305Z,101269.66
2022-08-28T05:38:05.791Z,101267.28
2022-08-28T05:40:32.500Z,101272.13
2022-08-28T05:42:59.376Z,101274.94
2022-08-28T05:45:25.930Z,101274.59
2022-08-28T05:47:52.732Z,101279.41
2022-08-28T05:50:19.240Z,101272.19
2022-08-28T05:52:45.722Z,101268.56
2022-08-28T05:55:13.238Z,101279.50
2022-08-28T05:57:40.938Z,101283.53
2022-08-28T06:00:13.684Z,101292.06
2022-08-28T06:02:42.055Z,101282.38
2022-08-28T06:05:12.931Z,101291.69
2022-08-28T06:07:41.047Z,101298.16
2022-08-28T06:10:10.578Z,101292.94
2022-08-28T06:12:37.941Z,101292.53
2022-08-28T06:15:06.016Z,101294.94
2022-08-28T06:17:32.684Z,101290.53
2022-08-28T06:19:59.297Z,101295.38
2022-08-28T06:22:25.806Z,101291.78
2022-08-28T06:24:52.343Z,101297.47
2022-08-28T06:27:18.919Z,101297.50
2022-08-28T06:29:45.857Z,101299.09
2022-08-28T06:32:13.259Z,101297.09
2022-08-28T06:34:39.990Z,101307.63
2022-08-28T06:37:06.664Z,101315.34
2022-08-28T06:39:33.164Z,101314.13
2022-08-28T06:41:59.972Z,101316.94
2022-08-28T06:44:27.981Z,101316.53
2022-08-28T06:46:54.834Z,101316.56
2022-08-28T06:49:21.935Z,101314.13
2022-08-28T06:51:48.742Z,101310.13
2022-08-28T06:54:21.410Z,101310.56
2022-08-28T06:56:49.514Z,101306.94
2022-08-28T06:59:16.032Z,101314.25
2022-08-28T07:01:42.577Z,101309.41
2022-08-28T07:04:11.944Z,101321.97
2022-08-28T07:06:41.272Z,101315.94
2022-08-28T07:09:11.092Z,101322.81
2022-08-28T07:11:38.576Z,101329.72
2022-08-28T07:14:06.908Z,101322.88
2022-08-28T07:16:38.320Z,101321.25
2022-08-28T07:19:11.253Z,101324.09
2022-08-28T07:21:40.003Z,101326.94
2022-08-28T07:24:08.520Z,101330.97
2022-08-28T07:26:35.864Z,101331.81
2022-08-28T07:29:10.951Z,101329.00
2022-08-28T07:31:46.496Z,101331.81
2022-08-28T07:34:14.660Z,101329.44
2022-08-28T07:36:41.985Z,101328.22
2022-08-28T07:39:10.066Z,101330.72
2022-08-28T07:41:40.119Z,101330.28
2022-08-28T07:44:26.319Z,101325.41
2022-08-28T07:46:57.975Z,101326.13
2022-08-28T07:49:25.711Z,101324.38
2022-08-28T07:51:54.202Z,101327.13
2022-08-28T07:54:21.467Z,101326.63
2022-08-28T07:56:47.966Z,101334.31
2022-08-28T07:59:19.359Z,101341.16
2022-08-28T08:01:50.681Z,101336.34
2022-08-28T08:04:23.762Z,101344.47
2022-08-28T08:06:57.618Z,101337.16
2022-08-28T08:09:25.341Z,101341.22
2022-08-28T08:11:52.291Z,101354.09
2022-08-28T08:14:18.943Z,101350.81
2022-08-28T08:16:47.416Z,101351.56
2022-08-28T08:19:15.514Z,101349.91
2022-08-28T08:21:54.679Z,101351.09
2022-08-28T08:24:37.371Z,101351.41
2022-08-28T08:27:04.096Z,101352.16
2022-08-28T08:29:53.987Z,101356.22
2022-08-28T08:32:20.627Z,101357.44
2022-08-28T08:34:47.358Z,101358.63
2022-08-28T08:37:14.121Z,101372.47
2022-08-28T08:39:42.563Z,101366.41
2022-08-28T08:42:23.032Z,101359.13
2022-08-28T08:44:51.960Z,101361.16
2022-08-28T08:47:51.535Z,101355.56
2022-08-28T08:50:30.891Z,101358.00
2022-08-28T08:53:23.459Z,101351.13
2022-08-28T08:55:57.860Z,101355.97
2022-08-28T08:58:36.614Z,101352.69
2022-08-28T09:01:31.373Z,101357.09
2022-08-28T09:04:04.298Z,101348.47
2022-08-28T09:06:59.440Z,101352.09
2022-08-28T09:09:41.935Z,101352.47
2022-08-28T09:12:14.099Z,101369.13
2022-08-28T09:15:05.196Z,101361.88
2022-08-28T09:17:47.889Z,101368.41
2022-08-28T09:20:25.916Z,101365.63
2022-08-28T09:22:59.836Z,101366.47
2022-08-28T09:25:44.626Z,101364.94
2022-08-28T09:28:23.567Z,101370.25
2022-08-28T09:31:01.375Z,101363.31
2022-08-28T09:33:49.556Z,101365.78
2022-08-28T09:36:31.881Z,101363.28
2022-08-28T09:39:32.542Z,101366.47
2022-08-28T09:42:33.057Z,101363.13
2022-08-28T09:45:20.157Z,101365.44
2022-08-28T09:47:51.092Z,101353.13
2022-08-28T09:50:29.031Z,101360.75
2022-08-28T09:52:58.601Z,101363.53
2022-08-28T09:55:36.037Z,101357.00
2022-08-28T09:58:04.033Z,101348.06
2022-08-28T10:00:36.097Z,101350.13
2022-08-28T10:03:21.398Z,101354.25
2022-08-28T10:06:18.616Z,101347.34
2022-08-28T10:09:13.659Z,101351.38
2022-08-28T10:11:52.268Z,101352.06
2022-08-28T10:14:38.256Z,101348.00
2022-08-28T10:17:26.007Z,101356.47
2022-08-28T10:20:01.831Z,101353.16
2022-08-28T10:22:47.715Z,101353.50
2022-08-28T10:25:14.167Z,101345.63
2022-08-28T10:27:49.811Z,101349.22
2022-08-28T10:30:22.887Z,101348.28
2022-08-28T10:32:59.565Z,101346.56
2022-08-28T10:35:40.066Z,101352.50
2022-08-28T10:38:16.237Z,101347.88
2022-08-28T10:41:04.148Z,101333.56
2022-08-28T10:43:41.538Z,101342.44
2022-08-28T10:46:42.616Z,101350.97
2022-08-28T10:49:21.294Z,101349.75
2022-08-28T10:51:57.165Z,101346.50
2022-08-28T10:55:00.250Z,101344.13
2022-08-28T10:57:49.065Z,101340.94
2022-08-28T11:00:21.862Z,101344.56
2022-08-28T11:03:01.015Z,101348.63
2022-08-28T11:05:35.798Z,101339.16
2022-08-28T11:08:07.771Z,101336.63
2022-08-28T11:10:37.088Z,101342.22
2022-08-28T11:13:07.116Z,101333.59
2022-08-28T11:15:37.159Z,101331.50
2022-08-28T11:18:16.382Z,101334.66
2022-08-28T11:20:55.518Z,101342.66
2022-08-28T11:23:30.057Z,101337.25
2022-08-28T11:26:02.241Z,101342.16
2022-08-28T11:28:34.696Z,101341.72
2022-08-28T11:31:01.179Z,101349.41
2022-08-28T11:33:39.926Z,101350.28
2022-08-28T11:36:32.579Z,101346.25
2022-08-28T11:39:02.993Z,101349.91
2022-08-28T11:41:39.106Z,101341.84
2022-08-28T11:44:12.385Z,101335.34
2022-08-28T11:46:47.462Z,101343.16
2022-08-28T11:49:29.209Z,101335.44
2022-08-28T11:52:10.918Z,101330.94
2022-08-28T11:55:02.423Z,101333.00
2022-08-28T12:00:49.276Z,101330.50
2022-08-28T12:03:38.418Z,101339.38
2022-08-28T12:06:06.837Z,101339.25
2022-08-28T12:08:46.603Z,101336.78
2022-08-28T12:11:41.149Z,101342.84
2022-08-28T12:14:32.007Z,101335.03
2022-08-28T12:16:58.461Z,101324.00
2022-08-28T12:19:55.929Z,101326.06
2022-08-28T12:22:44.504Z,101328.81
2022-08-28T12:25:18.231Z,101326.28
2022-08-28T12:27:44.834Z,101319.72
2022-08-28T12:30:12.161Z,101322.22
2022-08-28T12:32:59.850Z,101324.75
2022-08-28T12:35:29.840Z,101314.88
2022-08-28T12:37:57.330Z,101324.97
2022-08-28T12:40:50.384Z,101324.97
2022-08-28T12:43:32.140Z,101319.97
2022-08-28T12:46:04.028Z,101312.94
2022-08-28T12:48:51.507Z,101321.84
2022-08-28T12:51:30.979Z,101316.50
2022-08-28T12:54:03.822Z,101322.22
2022-08-28T12:56:34.124Z,101320.59
2022-08-28T12:59:32.505Z,101316.59
2022-08-28T13:02:03.249Z,101309.63
2022-08-28T13:04:36.888Z,101314.09
2022-08-28T13:07:10.888Z,101313.66
2022-08-28T13:09:42.238Z,101319.28
2022-08-28T13:12:22.905Z,101309.13
2022-08-28T13:15:02.657Z,101313.50
2022-08-28T13:17:50.529Z,101315.13
2022-08-28T13:20:27.984Z,101308.47
2022-08-28T13:22:55.544Z,101298.97
2022-08-28T13:25:29.513Z,101313.59
2022-08-28T13:28:20.559Z,101312.28
2022-08-28T13:30:58.123Z,101301.59
2022-08-28T13:33:26.848Z,101303.06
2022-08-28T13:35:53.917Z,101298.50
2022-08-28T13:38:25.039Z,101298.44
2022-08-28T13:40:58.438Z,101297.56
2022-08-28T13:43:28.555Z,101300.84
2022-08-28T13:45:55.616Z,101297.56
2022-08-28T13:48:25.139Z,101295.13
2022-08-28T13:51:01.685Z,101299.25
2022-08-28T13:53:29.962Z,101293.47
2022-08-28T13:56:00.180Z,101292.59
2022-08-28T13:58:28.231Z,101290.91
2022-08-28T14:00:55.477Z,101281.53
2022-08-28T14:03:38.138Z,101280.78
2022-08-28T14:06:12.442Z,101280.06
2022-08-28T14:08:40.679Z,101285.78
2022-08-28T14:11:07.737Z,101273.13
2022-08-28T14:13:35.964Z,101267.44
2022-08-28T14:16:07.882Z,101265.72
2022-08-28T14:18:35.041Z,101267.63
2022-08-28T14:21:05.048Z,101262.31
2022-08-28T14:23:31.631Z,101262.94
2022-08-28T14:25:58.187Z,101259.19
2022-08-28T14:28:24.697Z,101262.78
2022-08-28T14:30:51.862Z,101275.72
2022-08-28T14:33:20.523Z,101274.47
2022-08-28T14:35:48.883Z,101270.00
2022-08-28T14:38:16.070Z,101263.94
2022-08-28T14:40:43.689Z,101261.59
2022-08-28T14:43:12.115Z,101256.78
2022-08-28T14:45:49.821Z,101266.63
2022-08-28T14:48:18.428Z,101263.31
2022-08-28T14:50:47.973Z,101264.19
2022-08-28T14:53:15.752Z,101259.72
2022-08-28T14:55:49.986Z,101269.16
2022-08-28T14:58:18.311Z,101260.53
2022-08-28T15:00:48.905Z,101255.19
2022-08-28T15:03:17.275Z,101252.69
2022-08-28T15:05:44.587Z,101257.88
2022-08-28T15:08:15.300Z,101265.56
2022-08-28T15:10:42.869Z,101264.31
2022-08-28T15:13:10.666Z,101258.59
2022-08-28T15:15:42.572Z,101255.81
2022-08-28T15:18:11.031Z,101248.16
2022-08-28T15:20:42.184Z,101257.53
2022-08-28T15:23:09.617Z,101255.00
2022-08-28T15:25:36.209Z,101262.44
2022-08-28T15:28:02.936Z,101252.69
2022-08-28T15:30:29.624Z,101258.03
2022-08-28T15:32:56.246Z,101255.19
2022-08-28T15:35:22.848Z,101250.28
2022-08-28T15:37:49.456Z,101253.94
2022-08-28T15:40:34.468Z,101257.59
2022-08-28T15:43:01.181Z,101255.88
2022-08-28T15:45:27.834Z,101256.34
2022-08-28T15:47:54.697Z,101251.88
2022-08-28T15:50:21.322Z,101258.84
2022-08-28T15:52:48.457Z,101256.00
2022-08-28T15:55:14.984Z,101246.63
2022-08-28T15:57:41.517Z,101242.13
2022-08-28T16:00:10.532Z,101247.03
2022-08-28T16:02:38.523Z,101251.16
2022-08-28T16:05:06.058Z,101257.66
2022-08-28T16:07:32.728Z,101252.75
2022-08-28T16:09:59.227Z,101250.34
2022-08-28T16:12:25.752Z,101254.00
2022-08-28T16:14:52.380Z,101255.25
2022-08-28T16:17:19.009Z,101260.19
2022-08-28T16:19:46.589Z,101258.56
2022-08-28T16:22:16.757Z,101257.03
2022-08-28T16:24:44.985Z,101259.94
2022-08-28T16:27:15.400Z,101259.22
2022-08-28T16:29:43.263Z,101255.16
2022-08-28T16:32:11.797Z,101258.13
2022-08-28T16:34:38.947Z,101253.75
2022-08-28T16:37:08.003Z,101253.81
2022-08-28T16:39:35.811Z,101263.25
2022-08-28T16:42:02.399Z,101265.75
2022-08-28T16:44:28.900Z,101257.69
2022-08-28T16:46:56.025Z,101252.50
2022-08-28T16:49:23.891Z,101263.63
2022-08-28T16:51:51.126Z,101253.53
2022-08-28T16:54:18.423Z,101260.13
2022-08-28T16:56:45.691Z,101254.91
2022-08-28T16:59:12.632Z,101250.09
2022-08-28T17:01:40.946Z,101254.19
2022-08-28T17:04:09.556Z,101247.31
2022-08-28T17:06:36.119Z,101260.81
2022-08-28T17:09:02.650Z,101259.63
2022-08-28T17:11:29.386Z,101256.47
2022-08-28T17:13:56.827Z,101262.69
2022-08-28T17:16:26.010Z,101267.28
2022-08-28T17:18:53.011Z,101259.25
2022-08-28T17:21:40.117Z,101263.84
2022-08-28T17:24:07.374Z,101264.75
2022-08-28T17:26:34.017Z,101270.16
2022-08-28T17:29:00.614Z,101266.22
2022-08-28T17:31:27.446Z,101273.22
2022-08-28T17:33:54.351Z,101268.00
2022-08-28T17:36:33.411Z,101276.56
2022-08-28T17:39:02.307Z,101272.63
2022-08-28T17:41:29.069Z,101282.41
2022-08-28T17:43:55.565Z,101275.16
2022-08-28T17:46:22.530Z,101272.34
2022-08-28T17:48:55.690Z,101273.66
2022-08-28T17:51:42.925Z,101272.88
2022-08-28T17:54:18.383Z,101277.84
2022-08-28T17:56:45.055Z,101277.06
2022-08-28T17:59:12.504Z,101282.44
2022-08-28T18:01:39.341Z,101274.84
2022-08-28T18:04:05.944Z,101272.88
2022-08-28T18:06:32.752Z,101279.88
2022-08-28T18:08:59.388Z,101283.59
2022-08-28T18:11:26.213Z,101287.72
2022-08-28T18:13:53.078Z,101295.50
2022-08-28T18:16:19.616Z,101289.47
2022-08-28T18:18:46.258Z,101298.06
2022-08-28T18:21:14.124Z,101292.84
2022-08-28T18:23:40.741Z,101303.50
2022-08-28T18:26:08.582Z,101312.47
2022-08-28T18:28:36.976Z,101312.13
2022-08-28T18:31:06.595Z,101312.59
2022-08-28T18:33:34.307Z,101321.59
2022-08-28T18:36:01.117Z,101316.81
2022-08-28T18:38:28.632Z,101319.31
2022-08-28T18:40:56.190Z,101324.19
2022-08-28T18:43:23.971Z,101325.06
2022-08-28T18:45:51.322Z,101322.69
2022-08-28T18:48:19.217Z,101322.75
2022-08-28T18:50:47.473Z,101327.66
2022-08-28T18:53:19.368Z,101329.78
2022-08-28T18:55:46.106Z,101329.00
2022-08-28T18:58:15.452Z,101328.63
2022-08-28T19:00:43.615Z,101331.56
2022-08-28T19:03:11.027Z,101328.34
2022-08-28T19:05:38.538Z,101345.03
2022-08-28T19:08:05.596Z,101345.50
2022-08-28T19:10:34.718Z,101348.75
2022-08-28T19:13:02.620Z,101356.47
2022-08-28T19:15:30.214Z,101356.13
2022-08-28T19:18:00.292Z,101359.41
2022-08-28T19:20:28.099Z,101363.06
2022-08-28T19:22:56.284Z,101361.47
2022-08-28T19:25:28.194Z,101374.06
2022-08-28T19:27:59.790Z,101368.84
2022-08-28T19:30:29.060Z,101375.75
2022-08-28T19:32:55.863Z,101374.16
2022-08-28T19:35:24.173Z,101378.22
2022-08-28T19:37:54.303Z,101383.94
2022-08-28T19:40:22.240Z,101392.47
2022-08-28T19:42:50.062Z,101394.50
2022-08-28T19:45:17.929Z,101396.53
2022-08-28T19:47:45.398Z,101399.34
2022-08-28T19:50:13.910Z,101398.97
2022-08-28T19:52:40.957Z,101405.50
2022-08-28T19:55:08.902Z,101398.22
2022-08-28T19:57:35.583Z,101416.47
2022-08-28T20:00:04.068Z,101416.06
2022-08-28T20:02:30.645Z,101423.38
2022-08-28T20:04:57.519Z,101419.75
2022-08-28T20:07:25.098Z,101421.38
2022-08-28T20:09:52.369Z,101419.38
2022-08-28T20:12:19.458Z,101411.28
2022-08-28T20:14:47.125Z,101412.50
2022-08-28T20:17:14.064Z,101414.47
2022-08-28T20:19:41.210Z,101419.34
2022-08-28T20:22:07.724Z,101421.78
2022-08-28T20:24:34.499Z,101425.81
2022-08-28T20:27:01.007Z,101428.25
2022-08-28T20:29:27.543Z,101423.38
2022-08-28T20:31:54.180Z,101426.22
2022-08-28T20:34:21.310Z,101427.03
2022-08-28T20:36:48.535Z,101433.50
2022-08-28T20:39:15.571Z,101425.41
2022-08-28T20:41:43.887Z,101437.53
2022-08-28T20:44:12.898Z,101440.38
2022-08-28T20:46:42.100Z,101439.13
2022-08-28T20:49:10.909Z,101445.59
2022-08-28T20:51:55.806Z,101447.22
2022-08-28T20:54:36.503Z,101451.25
2022-08-28T20:57:07.793Z,101450.47
2022-08-28T20:59:39.525Z,101447.63
2022-08-28T21:02:22.944Z,101441.09
2022-08-28T21:04:50.247Z,101456.06
2022-08-28T21:07:19.954Z,101452.03
2022-08-28T21:10:03.931Z,101460.53
2022-08-28T21:12:34.595Z,101454.06
2022-08-28T21:15:01.277Z,101458.06
2022-08-28T21:17:29.777Z,101465.31
2022-08-28T21:20:11.646Z,101469.75
2022-08-28T21:22:39.412Z,101467.28
2022-08-28T21:25:08.827Z,101472.13
2022-08-28T21:27:36.359Z,101470.91
2022-08-28T21:30:05.024Z,101472.09
2022-08-28T21:32:33.854Z,101472.88
2022-08-28T21:35:02.331Z,101474.44
2022-08-28T21:37:29.170Z,101467.97
2022-08-28T21:39:57.867Z,101463.09
2022-08-28T21:42:25.044Z,101469.53
2022-08-28T21:44:52.252Z,101468.72
2022-08-28T21:47:21.448Z,101474.38
2022-08-28T21:49:49.525Z,101471.06
2022-08-28T21:52:18.549Z,101483.97
2022-08-28T21:54:45.121Z,101480.69
2022-08-28T21:57:11.705Z,101485.09
2022-08-28T21:59:38.951Z,101480.56
2022-08-28T22:02:06.015Z,101483.78
2022-08-28T22:04:33.020Z,101486.16
2022-08-28T22:06:59.505Z,101484.50
2022-08-28T22:09:26.095Z,101487.69
2022-08-28T22:11:52.669Z,101492.50
2022-08-28T22:14:19.231Z,101494.88
2022-08-28T22:16:46.414Z,101489.59
2022-08-28T22:19:12.991Z,101494.00
2022-08-28T22:21:58.120Z,101491.53
2022-08-28T22:24:24.720Z,101492.31
2022-08-28T22:26:53.250Z,101499.13
2022-08-28T22:29:24.745Z,101490.16
2022-08-28T22:31:51.473Z,101487.69
2022-08-28T22:34:18.699Z,101482.38
2022-08-28T22:36:45.198Z,101499.69
2022-08-28T22:39:11.739Z,101493.16
2022-08-28T22:41:38.656Z,101490.69
2022-08-28T22:44:05.313Z,101491.44
2022-08-28T22:46:31.822Z,101492.22
2022-08-28T22:48:59.251Z,101489.72
2022-08-28T22:51:25.735Z,101493.34
2022-08-28T22:53:52.491Z,101494.91
2022-08-28T22:56:18.985Z,101490.06
2022-08-28T22:58:45.726Z,101488.81
2022-08-28T23:01:17.499Z,101489.56
2022-08-28T23:03:45.111Z,101490.75
2022-08-28T23:06:12.398Z,101496.00
2022-08-28T23:08:38.899Z,101488.72
2022-08-28T23:11:06.292Z,101484.25
2022-08-28T23:13:33.013Z,101486.66
2022-08-28T23:16:01.491Z,101485.00
2022-08-28T23:18:28.756Z,101479.75
2022-08-28T23:20:56.093Z,101483.28
2022-08-28T23:23:22.956Z,101473.13
2022-08-28T23:25:50.502Z,101474.28
2022-08-28T23:28:18.395Z,101473.84
2022-08-28T23:30:49.528Z,101477.41
2022-08-28T23:33:23.815Z,101473.38
2022-08-28T23:35:51.612Z,101472.09
2022-08-28T23:38:18.423Z,101473.69
2022-08-28T23:40:48.084Z,101463.56
2022-08-28T23:43:15.207Z,101464.75
2022-08-28T23:45:42.896Z,101462.28
2022-08-28T23:48:10.036Z,101462.22
2022-08-28T23:50:40.317Z,101463.75
2022-08-28T23:53:08.427Z,101464.06
2022-08-28T23:55:35.986Z,101458.38
2022-08-28T23:58:03.363Z,101463.16
